createdAt,value
2018-07-26T12:34:34.758Z,1008.60
2018-07-26T12:35:34.724Z,1008.53
2018-07-26T12:37:28.082Z,1008.55
2018-07-26T12:38:28.056Z,1008.59
2018-07-26T12:40:21.441Z,1008.58
2018-07-26T12:41:21.392Z,1008.54
2018-07-26T12:43:14.758Z,1008.49
2018-07-26T12:44:14.735Z,1008.47
2018-07-26T12:46:08.110Z,1008.39
2018-07-26T12:47:08.084Z,1008.41
2018-07-26T12:49:01.451Z,1008.39
2018-07-26T12:50:01.432Z,1008.39
2018-07-26T12:51:54.808Z,1008.33
2018-07-26T12:52:54.780Z,1008.36
2018-07-26T12:54:48.182Z,1008.30
2018-07-26T12:55:48.155Z,1008.35
2018-07-26T12:57:41.518Z,1008.25
2018-07-26T12:58:41.496Z,1008.21
2018-07-26T13:00:34.863Z,1008.23
2018-07-26T13:01:34.895Z,1008.26
2018-07-26T13:03:28.222Z,1008.27
2018-07-26T13:04:28.193Z,1008.24
2018-07-26T13:06:22.575Z,1008.20
2018-07-26T13:07:22.544Z,1008.21
2018-07-26T13:08:22.526Z,1008.24
2018-07-26T13:09:22.511Z,1008.29
2018-07-26T13:10:22.497Z,1008.18
2018-07-26T13:11:22.480Z,1008.18
2018-07-26T13:12:22.489Z,1008.17
2018-07-26T13:13:22.454Z,1008.14
2018-07-26T13:14:22.437Z,1008.13
2018-07-26T13:15:22.423Z,1008.13
2018-07-26T13:16:22.406Z,1008.07
2018-07-26T13:17:22.391Z,1008.10
2018-07-26T13:18:22.376Z,1008.11
2018-07-26T13:19:22.363Z,1008.09
2018-07-26T13:20:22.345Z,1008.12
2018-07-26T13:21:22.333Z,1008.09
2018-07-26T13:22:22.315Z,1008.10
2018-07-26T13:23:22.301Z,1008.09
2018-07-26T13:24:22.284Z,1008.08
2018-07-26T13:25:22.270Z,1008.09
2018-07-26T13:26:22.255Z,1008.09
2018-07-26T13:27:22.239Z,1008.05
2018-07-26T13:28:22.224Z,1008.03
2018-07-26T13:29:22.209Z,1008.02
2018-07-26T13:30:22.193Z,1007.96
2018-07-26T13:31:22.178Z,1007.96
2018-07-26T13:32:22.164Z,1008.01
2018-07-26T13:33:22.154Z,1008.00
2018-07-26T13:34:22.197Z,1008.00
2018-07-26T13:35:22.119Z,1007.97
2018-07-26T13:36:22.102Z,1007.96
2018-07-26T13:37:22.085Z,1007.98
2018-07-26T13:38:22.077Z,1007.93
2018-07-26T13:39:22.057Z,1007.95
2018-07-26T13:40:22.129Z,1007.91
2018-07-26T13:41:22.025Z,1007.93
2018-07-26T13:42:22.011Z,1007.91
2018-07-26T13:43:22.000Z,1007.91
2018-07-26T13:44:21.978Z,1007.89
2018-07-26T13:45:21.963Z,1007.91
2018-07-26T13:46:22.004Z,1007.86
2018-07-26T13:47:21.933Z,1007.87
2018-07-26T13:48:21.918Z,1007.90
2018-07-26T13:49:21.904Z,1007.86
2018-07-26T13:50:21.887Z,1007.83
2018-07-26T13:51:21.873Z,1007.85
2018-07-26T13:52:21.877Z,1007.85
2018-07-26T13:53:21.844Z,1007.88
2018-07-26T13:54:21.825Z,1007.82
2018-07-26T13:55:21.811Z,1007.85
2018-07-26T13:56:21.796Z,1007.81
2018-07-26T13:57:21.779Z,1007.79
2018-07-26T13:58:21.787Z,1007.79
2018-07-26T13:59:21.751Z,1007.79
2018-07-26T14:00:21.733Z,1007.85
2018-07-26T14:01:21.721Z,1007.83
2018-07-26T14:02:21.704Z,1007.87
2018-07-26T14:03:21.693Z,1007.84
2018-07-26T14:04:21.671Z,1007.86
2018-07-26T14:05:21.657Z,1007.86
2018-07-26T14:06:21.680Z,1007.84
2018-07-26T14:07:21.626Z,1007.86
2018-07-26T14:08:21.612Z,1007.91
2018-07-26T14:09:21.596Z,1007.89
2018-07-26T14:10:21.582Z,1007.86
2018-07-26T14:11:21.565Z,1007.86
2018-07-26T14:12:21.548Z,1007.90
2018-07-26T14:13:21.534Z,1007.84
2018-07-26T14:14:21.521Z,1007.81
2018-07-26T14:15:21.535Z,1007.81
2018-07-26T14:16:21.487Z,1007.80
2018-07-26T14:17:21.472Z,1007.78
2018-07-26T14:19:53.546Z,1007.67
2018-07-26T14:20:53.605Z,1007.68
2018-07-26T14:22:47.904Z,1007.67
2018-07-26T14:23:47.875Z,1007.68
2018-07-26T14:25:41.252Z,1007.67
2018-07-26T14:26:41.226Z,1007.63
2018-07-26T14:28:34.589Z,1007.61
2018-07-26T14:29:34.635Z,1007.67
2018-07-26T14:31:27.980Z,1007.63
2018-07-26T14:32:27.929Z,1007.66
2018-07-26T14:34:21.298Z,1007.67
2018-07-26T14:35:21.277Z,1007.66
2018-07-26T14:37:14.664Z,1007.64
2018-07-26T14:38:14.689Z,1007.63
2018-07-26T14:40:08.001Z,1007.65
2018-07-26T14:41:07.985Z,1007.65
2018-07-26T14:43:02.364Z,1007.65
2018-07-26T14:44:02.329Z,1007.67
2018-07-26T14:45:02.315Z,1007.65
2018-07-26T14:46:02.348Z,1007.65
2018-07-26T14:47:02.293Z,1007.66
2018-07-26T14:48:02.269Z,1007.66
2018-07-26T14:49:02.254Z,1007.60
2018-07-26T14:50:02.237Z,1007.63
2018-07-26T14:51:02.222Z,1007.59
2018-07-26T14:52:02.209Z,1007.62
2018-07-26T14:53:02.190Z,1007.63
2018-07-26T14:54:02.171Z,1007.66
2018-07-26T14:55:02.164Z,1007.67
2018-07-26T14:56:02.148Z,1007.66
2018-07-26T14:57:02.132Z,1007.66
2018-07-26T14:58:02.113Z,1007.70
2018-07-26T14:59:02.102Z,1007.69
2018-07-26T15:00:02.082Z,1007.73
2018-07-26T15:01:02.065Z,1007.73
2018-07-26T15:02:02.051Z,1007.78
2018-07-26T15:03:02.036Z,1007.72
2018-07-26T15:04:02.069Z,1007.72
2018-07-26T15:05:02.008Z,1007.68
2018-07-26T15:06:01.989Z,1007.70
2018-07-26T15:07:01.974Z,1007.70
2018-07-26T15:08:01.962Z,1007.66
2018-07-26T15:09:01.943Z,1007.69
2018-07-26T15:10:01.926Z,1007.70
2018-07-26T15:11:01.910Z,1007.65
2018-07-26T15:12:01.896Z,1007.70
2018-07-26T15:13:01.880Z,1007.71
2018-07-26T15:14:01.910Z,1007.69
2018-07-26T15:15:01.848Z,1007.71
2018-07-26T15:16:01.833Z,1007.66
2018-07-26T15:17:01.823Z,1007.68
2018-07-26T15:18:01.804Z,1007.64
2018-07-26T15:19:01.787Z,1007.64
2018-07-26T15:20:01.772Z,1007.66
2018-07-26T15:21:01.766Z,1007.59
2018-07-26T15:22:01.741Z,1007.59
2018-07-26T15:23:01.723Z,1007.61
2018-07-26T15:24:01.709Z,1007.64
2018-07-26T15:25:01.798Z,1007.62
2018-07-26T15:26:01.683Z,1007.61
2018-07-26T15:27:01.654Z,1007.58
2018-07-26T15:28:01.645Z,1007.58
2018-07-26T15:29:01.629Z,1007.56
2018-07-26T15:30:01.616Z,1007.56
2018-07-26T15:31:01.603Z,1007.58
2018-07-26T15:32:01.583Z,1007.57
2018-07-26T15:33:01.568Z,1007.56
2018-07-26T15:34:01.555Z,1007.59
2018-07-26T15:35:01.537Z,1007.55
2018-07-26T15:36:01.522Z,1007.59
2018-07-26T15:37:01.505Z,1007.57
2018-07-26T15:38:01.490Z,1007.58
2018-07-26T15:39:01.474Z,1007.57
2018-07-26T15:40:01.459Z,1007.55
2018-07-26T15:41:01.442Z,1007.51
2018-07-26T15:42:01.431Z,1007.51
2018-07-26T15:43:01.411Z,1007.48
2018-07-26T15:44:01.399Z,1007.47
2018-07-26T15:45:01.380Z,1007.48
2018-07-26T15:46:01.364Z,1007.44
2018-07-26T15:47:01.370Z,1007.43
2018-07-26T15:48:01.332Z,1007.40
2018-07-26T15:49:01.318Z,1007.36
2018-07-26T15:50:01.303Z,1007.31
2018-07-26T15:51:01.307Z,1007.32
2018-07-26T15:52:01.270Z,1007.31
2018-07-26T15:53:01.255Z,1007.32
2018-07-26T15:54:01.239Z,1007.32
2018-07-26T15:55:01.225Z,1007.30
2018-07-26T15:56:01.208Z,1007.32
2018-07-26T15:57:01.196Z,1007.33
2018-07-26T15:58:01.178Z,1007.35
2018-07-26T15:59:01.162Z,1007.30
2018-07-26T16:00:01.146Z,1007.36
2018-07-26T16:01:01.132Z,1007.35
2018-07-26T16:02:01.114Z,1007.33
2018-07-26T16:03:01.099Z,1007.35
2018-07-26T16:04:01.082Z,1007.38
2018-07-26T16:05:01.068Z,1007.32
2018-07-26T16:06:01.053Z,1007.33
2018-07-26T16:07:01.037Z,1007.38
2018-07-26T16:08:01.023Z,1007.36
2018-07-26T16:09:01.005Z,1007.31
2018-07-26T16:10:00.989Z,1007.37
2018-07-26T16:11:00.977Z,1007.37
2018-07-26T16:12:00.955Z,1007.34
2018-07-26T16:13:00.941Z,1007.30
2018-07-26T16:14:00.929Z,1007.30
2018-07-26T16:15:00.915Z,1007.33
2018-07-26T16:16:00.894Z,1007.28
2018-07-26T16:17:00.894Z,1007.27
2018-07-26T16:18:01.000Z,1007.29
2018-07-26T16:19:00.849Z,1007.32
2018-07-26T16:20:00.833Z,1007.33
2018-07-26T16:21:00.815Z,1007.36
2018-07-26T16:22:00.804Z,1007.35
2018-07-26T16:23:00.793Z,1007.35
2018-07-26T16:24:00.773Z,1007.41
2018-07-26T16:25:00.753Z,1007.41
2018-07-26T16:26:00.740Z,1007.41
2018-07-26T16:27:00.724Z,1007.42
2018-07-26T16:28:00.707Z,1007.38
2018-07-26T16:29:00.789Z,1007.38
2018-07-26T16:30:00.675Z,1007.35
2018-07-26T16:31:00.661Z,1007.36
2018-07-26T16:32:00.644Z,1007.32
2018-07-26T16:33:00.630Z,1007.33
2018-07-26T16:34:00.625Z,1007.28
2018-07-26T16:35:00.597Z,1007.29
2018-07-26T16:36:00.580Z,1007.28
2018-07-26T16:37:00.567Z,1007.30
2018-07-26T16:38:00.550Z,1007.30
2018-07-26T16:39:00.536Z,1007.27
2018-07-26T16:40:00.577Z,1007.25
2018-07-26T16:41:00.506Z,1007.28
2018-07-26T16:42:00.490Z,1007.25
2018-07-26T16:43:00.474Z,1007.26
2018-07-26T16:44:00.455Z,1007.29
2018-07-26T16:45:00.441Z,1007.31
2018-07-26T16:46:00.425Z,1007.29
2018-07-26T16:47:00.410Z,1007.31
2018-07-26T16:48:00.393Z,1007.32
2018-07-26T16:49:00.378Z,1007.39
2018-07-26T16:50:00.362Z,1007.43
2018-07-26T16:51:00.347Z,1007.44
2018-07-26T16:52:00.331Z,1007.44
2018-07-26T16:53:00.315Z,1007.47
2018-07-26T16:54:00.298Z,1007.47
2018-07-26T16:55:00.284Z,1007.48
2018-07-26T16:56:00.267Z,1007.50
2018-07-26T16:57:00.252Z,1007.51
2018-07-26T16:58:00.236Z,1007.49
2018-07-26T16:59:00.311Z,1007.53
2018-07-26T17:00:00.206Z,1007.55
2018-07-26T17:01:00.189Z,1007.57
2018-07-26T17:02:00.174Z,1007.59
2018-07-26T17:03:00.159Z,1007.65
2018-07-26T17:04:00.252Z,1007.67
2018-07-26T17:05:00.238Z,1007.68
2018-07-26T17:06:00.126Z,1007.72
2018-07-26T17:07:00.131Z,1007.67
2018-07-26T17:08:00.070Z,1007.72
2018-07-26T17:09:00.062Z,1007.66
2018-07-26T17:11:32.135Z,1007.60
2018-07-26T17:12:32.131Z,1007.61
2018-07-26T17:14:25.475Z,1007.59
2018-07-26T17:15:25.454Z,1007.60
2018-07-26T17:17:18.829Z,1007.62
2018-07-26T17:18:18.802Z,1007.59
2018-07-26T17:20:12.170Z,1007.56
2018-07-26T17:21:12.151Z,1007.57
2018-07-26T17:23:05.533Z,1007.57
2018-07-26T17:24:05.507Z,1007.54
2018-07-26T17:25:58.876Z,1007.50
2018-07-26T17:26:58.859Z,1007.49
2018-07-26T17:28:52.275Z,1007.48
2018-07-26T17:29:52.202Z,1007.55
2018-07-26T17:31:45.089Z,1007.51
2018-07-26T17:32:45.056Z,1007.46
2018-07-26T17:34:38.423Z,1007.46
2018-07-26T17:35:38.415Z,1007.45
2018-07-26T17:37:31.787Z,1007.47
2018-07-26T17:38:31.755Z,1007.44
2018-07-26T17:40:25.120Z,1007.46
2018-07-26T17:41:25.102Z,1007.47
2018-07-26T17:43:18.475Z,1007.49
2018-07-26T17:44:18.452Z,1007.45
2018-07-26T17:46:11.817Z,1007.46
2018-07-26T17:47:11.796Z,1007.45
2018-07-26T17:49:05.171Z,1007.45
2018-07-26T17:50:05.144Z,1007.49
2018-07-26T17:51:58.509Z,1007.51
2018-07-26T17:52:58.491Z,1007.52
2018-07-26T17:54:51.868Z,1007.50
2018-07-26T17:55:51.839Z,1007.52
2018-07-26T17:57:45.220Z,1007.56
2018-07-26T17:58:45.196Z,1007.53
2018-07-26T18:00:38.569Z,1007.58
2018-07-26T18:01:38.543Z,1007.60
2018-07-26T18:03:31.910Z,1007.59
2018-07-26T18:04:31.910Z,1007.59
2018-07-26T18:06:25.266Z,1007.61
2018-07-26T18:07:25.238Z,1007.61
2018-07-26T18:09:18.621Z,1007.61
2018-07-26T18:10:18.595Z,1007.62
2018-07-26T18:12:11.960Z,1007.59
2018-07-26T18:13:11.940Z,1007.56
2018-07-26T18:15:05.347Z,1007.59
2018-07-26T18:16:05.298Z,1007.58
2018-07-26T18:19:30.761Z,1007.56
2018-07-26T18:20:30.770Z,1007.56
2018-07-26T18:22:23.687Z,1007.61
2018-07-26T18:23:23.642Z,1007.60
2018-07-26T18:24:23.625Z,1007.61
2018-07-26T18:25:23.628Z,1007.65
2018-07-26T18:26:23.596Z,1007.65
2018-07-26T18:27:23.579Z,1007.67
2018-07-26T18:28:23.563Z,1007.64
2018-07-26T18:29:23.547Z,1007.68
2018-07-26T18:30:23.533Z,1007.70
2018-07-26T18:31:23.548Z,1007.72
2018-07-26T18:32:23.501Z,1007.73
2018-07-26T18:33:23.499Z,1007.74
2018-07-26T18:34:23.468Z,1007.70
2018-07-26T18:35:23.452Z,1007.76
2018-07-26T18:36:23.456Z,1007.71
2018-07-26T18:37:23.422Z,1007.68
2018-07-26T18:38:23.470Z,1007.66
2018-07-26T18:39:23.389Z,1007.67
2018-07-26T18:40:23.374Z,1007.66
2018-07-26T18:41:23.358Z,1007.68
2018-07-26T18:42:23.343Z,1007.70
2018-07-26T18:43:23.386Z,1007.69
2018-07-26T18:44:23.311Z,1007.71
2018-07-26T18:45:23.292Z,1007.71
2018-07-26T18:46:23.279Z,1007.70
2018-07-26T18:47:23.265Z,1007.71
2018-07-26T18:48:23.251Z,1007.78
2018-07-26T18:49:23.294Z,1007.75
2018-07-26T18:50:23.218Z,1007.82
2018-07-26T18:51:23.201Z,1007.83
2018-07-26T18:52:23.184Z,1007.82
2018-07-26T18:53:23.169Z,1007.84
2018-07-26T18:54:23.153Z,1007.85
2018-07-26T18:55:23.133Z,1007.87
2018-07-26T18:56:23.122Z,1007.88
2018-07-26T18:57:23.110Z,1007.92
2018-07-26T18:58:23.094Z,1007.95
2018-07-26T18:59:23.075Z,1007.92
2018-07-26T19:00:23.060Z,1008.01
2018-07-26T19:01:23.043Z,1008.00
2018-07-26T19:02:23.029Z,1008.02
2018-07-26T19:03:23.056Z,1008.05
2018-07-26T19:04:22.997Z,1008.04
2018-07-26T19:05:22.984Z,1008.07
2018-07-26T19:06:22.967Z,1008.07
2018-07-26T19:07:22.949Z,1008.06
2018-07-26T19:08:22.933Z,1008.08
2018-07-26T19:09:22.918Z,1008.05
2018-07-26T19:10:22.902Z,1008.04
2018-07-26T19:11:22.885Z,1008.07
2018-07-26T19:12:22.871Z,1008.05
2018-07-26T19:13:22.855Z,1008.06
2018-07-26T19:14:22.840Z,1008.07
2018-07-26T19:15:22.825Z,1008.08
2018-07-26T19:16:22.809Z,1008.08
2018-07-26T19:17:22.808Z,1008.12
2018-07-26T19:18:22.778Z,1008.10
2018-07-26T19:19:22.758Z,1008.13
2018-07-26T19:20:22.744Z,1008.15
2018-07-26T19:21:22.730Z,1008.14
2018-07-26T19:22:22.735Z,1008.13
2018-07-26T19:23:22.696Z,1008.18
2018-07-26T19:24:22.681Z,1008.15
2018-07-26T19:25:22.667Z,1008.19
2018-07-26T19:26:22.651Z,1008.16
2018-07-26T19:27:22.637Z,1008.19
2018-07-26T19:28:22.619Z,1008.20
2018-07-26T19:29:22.603Z,1008.21
2018-07-26T19:30:22.587Z,1008.22
2018-07-26T19:31:22.573Z,1008.22
2018-07-26T19:32:22.555Z,1008.24
2018-07-26T19:33:22.540Z,1008.26
2018-07-26T19:34:22.528Z,1008.27
2018-07-26T19:35:22.562Z,1008.21
2018-07-26T19:36:22.557Z,1008.20
2018-07-26T19:37:22.479Z,1008.21
2018-07-26T19:38:22.466Z,1008.23
2018-07-26T19:39:22.471Z,1008.25
2018-07-26T19:40:22.429Z,1008.27
2018-07-26T19:41:22.412Z,1008.27
2018-07-26T19:42:22.398Z,1008.30
2018-07-26T19:43:22.382Z,1008.28
2018-07-26T19:44:22.366Z,1008.31
2018-07-26T19:45:22.350Z,1008.35
2018-07-26T19:46:22.336Z,1008.33
2018-07-26T19:47:22.318Z,1008.35
2018-07-26T19:48:22.303Z,1008.32
2018-07-26T19:49:22.287Z,1008.33
2018-07-26T19:51:54.362Z,1008.38
2018-07-26T19:52:54.331Z,1008.42
2018-07-26T19:54:47.701Z,1008.41
2018-07-26T19:55:47.676Z,1008.46
2018-07-26T19:57:41.065Z,1008.46
2018-07-26T19:58:41.035Z,1008.43
2018-07-26T20:00:34.402Z,1008.49
2018-07-26T20:01:34.381Z,1008.52
2018-07-26T20:03:27.756Z,1008.53
2018-07-26T20:04:27.728Z,1008.54
2018-07-26T20:06:21.112Z,1008.57
2018-07-26T20:07:21.082Z,1008.59
2018-07-26T20:09:14.462Z,1008.61
2018-07-26T20:10:14.433Z,1008.69
2018-07-26T20:12:07.799Z,1008.65
2018-07-26T20:13:07.779Z,1008.66
2018-07-26T20:15:01.154Z,1008.67
2018-07-26T20:16:01.126Z,1008.69
2018-07-26T20:17:54.491Z,1008.65
2018-07-26T20:18:54.472Z,1008.62
2018-07-26T20:20:47.847Z,1008.55
2018-07-26T20:21:47.820Z,1008.59
2018-07-26T20:25:13.268Z,1008.52
2018-07-26T20:26:13.242Z,1008.52
2018-07-26T20:28:06.635Z,1008.52
2018-07-26T20:29:06.600Z,1008.49
2018-07-26T20:30:59.973Z,1008.46
2018-07-26T20:31:59.946Z,1008.45
2018-07-26T20:33:53.323Z,1008.49
2018-07-26T20:34:53.303Z,1008.45
2018-07-26T20:36:46.676Z,1008.45
2018-07-26T20:37:46.648Z,1008.47
2018-07-26T20:39:40.016Z,1008.44
2018-07-26T20:40:39.995Z,1008.44
2018-07-26T20:42:33.372Z,1008.45
2018-07-26T20:43:33.344Z,1008.49
2018-07-26T20:45:26.721Z,1008.46
2018-07-26T20:46:26.703Z,1008.47
2018-07-26T20:48:20.167Z,1008.48
2018-07-26T20:49:20.050Z,1008.50
2018-07-26T20:51:13.416Z,1008.53
2018-07-26T20:52:13.396Z,1008.52
2018-07-26T20:54:06.823Z,1008.51
2018-07-26T20:55:06.754Z,1008.51
2018-07-26T20:57:00.128Z,1008.53
2018-07-26T20:58:00.111Z,1008.57
2018-07-26T20:59:53.482Z,1008.57
2018-07-26T21:00:53.457Z,1008.61
2018-07-26T21:02:46.836Z,1008.61
2018-07-26T21:03:46.806Z,1008.69
2018-07-26T21:05:40.208Z,1008.65
2018-07-26T21:06:40.181Z,1008.64
2018-07-26T21:08:33.547Z,1008.66
2018-07-26T21:09:33.527Z,1008.67
2018-07-26T21:11:26.957Z,1008.67
2018-07-26T21:12:26.875Z,1008.67
2018-07-26T21:14:20.240Z,1008.69
2018-07-26T21:15:20.221Z,1008.67
2018-07-26T21:17:13.598Z,1008.69
2018-07-26T21:18:13.663Z,1008.69
2018-07-26T21:20:06.936Z,1008.71
2018-07-26T21:21:06.918Z,1008.71
2018-07-26T21:23:00.305Z,1008.73
2018-07-26T21:24:00.280Z,1008.71
2018-07-26T21:25:53.713Z,1008.73
2018-07-26T21:26:53.631Z,1008.74
2018-07-26T21:28:47.068Z,1008.78
2018-07-26T21:29:47.040Z,1008.79
2018-07-26T21:31:40.444Z,1008.79
2018-07-26T21:32:40.386Z,1008.81
2018-07-26T21:34:33.762Z,1008.83
2018-07-26T21:35:33.735Z,1008.84
2018-07-26T21:37:27.112Z,1008.86
2018-07-26T21:38:27.092Z,1008.90
2018-07-26T21:40:20.469Z,1009.00
2018-07-26T21:41:20.440Z,1009.03
2018-07-26T21:43:13.815Z,1008.96
2018-07-26T21:44:13.797Z,1008.98
2018-07-26T21:46:07.187Z,1008.99
2018-07-26T21:47:07.170Z,1008.99
2018-07-26T21:49:00.524Z,1009.01
2018-07-26T21:50:00.505Z,1009.04
2018-07-26T21:51:53.891Z,1009.02
2018-07-26T21:52:53.863Z,1009.06
2018-07-26T21:54:47.269Z,1009.03
2018-07-26T21:55:47.251Z,1009.05
2018-07-26T21:57:40.623Z,1009.06
2018-07-26T21:58:40.598Z,1009.03
2018-07-26T22:00:33.979Z,1009.07
2018-07-26T22:01:33.945Z,1009.06
2018-07-26T22:03:27.312Z,1009.09
2018-07-26T22:04:27.292Z,1009.11
2018-07-26T22:06:20.670Z,1009.13
2018-07-26T22:07:20.642Z,1009.15
2018-07-26T22:09:14.008Z,1009.17
2018-07-26T22:10:13.991Z,1009.17
2018-07-26T22:12:07.376Z,1009.13
2018-07-26T22:13:07.345Z,1009.12
2018-07-26T22:15:00.763Z,1009.18
2018-07-26T22:16:00.706Z,1009.15
2018-07-26T22:17:54.088Z,1009.19
2018-07-26T22:18:54.062Z,1009.18
2018-07-26T22:20:47.437Z,1009.23
2018-07-26T22:21:47.417Z,1009.21
2018-07-26T22:23:40.800Z,1009.23
2018-07-26T22:24:40.774Z,1009.21
2018-07-26T22:26:34.149Z,1009.21
2018-07-26T22:27:34.132Z,1009.27
2018-07-26T22:29:27.503Z,1009.22
2018-07-26T22:30:27.477Z,1009.23
2018-07-26T22:32:20.855Z,1009.24
2018-07-26T22:33:20.835Z,1009.25
2018-07-26T22:35:14.219Z,1009.22
2018-07-26T22:36:14.192Z,1009.24
2018-07-26T22:38:07.556Z,1009.24
2018-07-26T22:39:07.539Z,1009.21
2018-07-26T22:41:00.923Z,1009.20
2018-07-26T22:42:00.897Z,1009.23
2018-07-26T22:43:54.272Z,1009.20
2018-07-26T22:44:54.254Z,1009.19
2018-07-26T22:46:47.637Z,1009.21
2018-07-26T22:47:47.612Z,1009.22
2018-07-26T22:49:40.976Z,1009.23
2018-07-26T22:50:40.963Z,1009.21
2018-07-26T22:52:34.332Z,1009.23
2018-07-26T22:53:34.304Z,1009.24
2018-07-26T22:55:27.681Z,1009.28
2018-07-26T22:56:27.662Z,1009.27
2018-07-26T22:58:21.069Z,1009.23
2018-07-26T22:59:21.037Z,1009.26
2018-07-26T23:01:14.403Z,1009.27
2018-07-26T23:02:14.383Z,1009.26
2018-07-26T23:04:07.765Z,1009.25
2018-07-26T23:05:07.732Z,1009.23
2018-07-26T23:07:01.098Z,1009.25
2018-07-26T23:08:01.080Z,1009.25
2018-07-26T23:09:54.455Z,1009.25
2018-07-26T23:10:54.428Z,1009.26
2018-07-26T23:12:47.805Z,1009.26
2018-07-26T23:13:47.783Z,1009.21
2018-07-26T23:15:41.151Z,1009.21
2018-07-26T23:16:41.122Z,1009.22
2018-07-26T23:18:34.496Z,1009.23
2018-07-26T23:19:34.474Z,1009.20
2018-07-26T23:21:27.846Z,1009.21
2018-07-26T23:22:27.819Z,1009.23
2018-07-26T23:24:21.184Z,1009.23
2018-07-26T23:25:21.169Z,1009.23
2018-07-26T23:27:14.542Z,1009.26
2018-07-26T23:28:14.516Z,1009.28
2018-07-26T23:30:07.890Z,1009.23
2018-07-26T23:31:07.861Z,1009.28
2018-07-26T23:33:01.237Z,1009.23
2018-07-26T23:34:01.234Z,1009.26
2018-07-26T23:35:54.591Z,1009.24
2018-07-26T23:36:54.557Z,1009.23
2018-07-26T23:38:47.924Z,1009.19
2018-07-26T23:39:47.905Z,1009.19
2018-07-26T23:41:41.284Z,1009.19
2018-07-26T23:42:41.255Z,1009.19
2018-07-26T23:44:34.624Z,1009.21
2018-07-26T23:45:34.603Z,1009.22
2018-07-26T23:49:00.866Z,1009.30
2018-07-26T23:50:00.845Z,1009.27
2018-07-26T23:51:54.212Z,1009.28
2018-07-26T23:52:54.193Z,1009.29
2018-07-26T23:54:47.565Z,1009.29
2018-07-26T23:55:47.537Z,1009.31
2018-07-26T23:57:40.904Z,1009.28
2018-07-26T23:58:40.882Z,1009.28
